sensor_id;sensor_type;location;lat;lon;timestamp;temperature;humidity
19999;DHT22;10160;50.926;4.374;2022-11-20T00:00:53;6.30;99.90
19999;DHT22;10160;50.926;4.374;2022-11-20T00:03:19;6.50;99.90
19999;DHT22;10160;50.926;4.374;2022-11-20T00:05:45;6.50;99.90
19999;DHT22;10160;50.926;4.374;2022-11-20T00:08:11;6.50;99.90
19999;DHT22;10160;50.926;4.374;2022-11-20T00:10:41;6.50;99.90
19999;DHT22;10160;50.926;4.374;2022-11-20T00:13:07;6.40;99.90
19999;DHT22;10160;50.926;4.374;2022-11-20T00:15:33;6.60;99.90
19999;DHT22;10160;50.926;4.374;2022-11-20T00:17:59;6.70;99.90
19999;DHT22;10160;50.926;4.374;2022-11-20T00:20:24;6.70;99.90
19999;DHT22;10160;50.926;4.374;2022-11-20T00:22:50;6.60;99.90
19999;DHT22;10160;50.926;4.374;2022-11-20T00:25:16;6.60;99.90
19999;DHT22;10160;50.926;4.374;2022-11-20T00:27:42;6.60;99.90
19999;DHT22;10160;50.926;4.374;2022-11-20T00:30:08;6.50;99.90
19999;DHT22;10160;50.926;4.374;2022-11-20T00:32:34;6.50;99.90
19999;DHT22;10160;50.926;4.374;2022-11-20T00:35:00;6.50;99.90
19999;DHT22;10160;50.926;4.374;2022-11-20T00:37:26;6.50;99.90
19999;DHT22;10160;50.926;4.374;2022-11-20T00:39:51;6.60;99.90
19999;DHT22;10160;50.926;4.374;2022-11-20T00:42:17;6.60;99.90
19999;DHT22;10160;50.926;4.374;2022-11-20T00:44:43;6.50;99.90
19999;DHT22;10160;50.926;4.374;2022-11-20T00:47:08;6.60;99.90
19999;DHT22;10160;50.926;4.374;2022-11-20T00:49:34;6.60;99.90
19999;DHT22;10160;50.926;4.374;2022-11-20T00:52:00;6.70;99.90
19999;DHT22;10160;50.926;4.374;2022-11-20T00:54:25;6.50;99.90
19999;DHT22;10160;50.926;4.374;2022-11-20T00:56:53;6.50;99.90
19999;DHT22;10160;50.926;4.374;2022-11-20T00:59:18;6.60;99.90
19999;DHT22;10160;50.926;4.374;2022-11-20T01:01:45;6.60;99.90
19999;DHT22;10160;50.926;4.374;2022-11-20T01:04:11;6.30;99.90
19999;DHT22;10160;50.926;4.374;2022-11-20T01:06:38;6.20;99.90
19999;DHT22;10160;50.926;4.374;2022-11-20T01:09:11;6.20;99.90
19999;DHT22;10160;50.926;4.374;2022-11-20T01:11:39;6.30;99.90
19999;DHT22;10160;50.926;4.374;2022-11-20T01:14:09;6.30;99.90
19999;DHT22;10160;50.926;4.374;2022-11-20T01:16:37;6.40;99.90
19999;DHT22;10160;50.926;4.374;2022-11-20T01:19:05;6.30;99.90
19999;DHT22;10160;50.926;4.374;2022-11-20T01:21:37;5.90;99.90
19999;DHT22;10160;50.926;4.374;2022-11-20T01:24:04;5.60;99.90
19999;DHT22;10160;50.926;4.374;2022-11-20T01:26:33;5.60;99.90
19999;DHT22;10160;50.926;4.374;2022-11-20T01:28:59;5.80;99.90
19999;DHT22;10160;50.926;4.374;2022-11-20T01:31:33;6.10;99.90
19999;DHT22;10160;50.926;4.374;2022-11-20T01:34:01;6.30;99.90
19999;DHT22;10160;50.926;4.374;2022-11-20T01:36:29;6.40;99.90
19999;DHT22;10160;50.926;4.374;2022-11-20T01:38:57;6.40;99.90
19999;DHT22;10160;50.926;4.374;2022-11-20T01:41:24;6.20;99.90
19999;DHT22;10160;50.926;4.374;2022-11-20T01:44:12;6.30;99.90
19999;DHT22;10160;50.926;4.374;2022-11-20T01:47:02;6.40;99.90
19999;DHT22;10160;50.926;4.374;2022-11-20T01:49:37;6.30;99.90
19999;DHT22;10160;50.926;4.374;2022-11-20T01:52:09;6.30;99.90
19999;DHT22;10160;50.926;4.374;2022-11-20T01:54:47;6.30;99.90
19999;DHT22;10160;50.926;4.374;2022-11-20T01:57:15;6.20;99.90
19999;DHT22;10160;50.926;4.374;2022-11-20T01:59:46;6.20;99.90
19999;DHT22;10160;50.926;4.374;2022-11-20T02:02:14;6.20;99.90
19999;DHT22;10160;50.926;4.374;2022-11-20T02:04:40;6.20;99.90
19999;DHT22;10160;50.926;4.374;2022-11-20T02:07:06;6.20;99.90
19999;DHT22;10160;50.926;4.374;2022-11-20T02:09:32;6.40;99.90
19999;DHT22;10160;50.926;4.374;2022-11-20T02:11:58;6.50;99.90
19999;DHT22;10160;50.926;4.374;2022-11-20T02:14:25;6.40;99.90
19999;DHT22;10160;50.926;4.374;2022-11-20T02:16:51;6.30;99.90
19999;DHT22;10160;50.926;4.374;2022-11-20T02:24:22;6.00;99.90
19999;DHT22;10160;50.926;4.374;2022-11-20T02:26:56;6.20;99.90
19999;DHT22;10160;50.926;4.374;2022-11-20T02:29:34;6.20;99.90
19999;DHT22;10160;50.926;4.374;2022-11-20T02:32:00;6.10;99.90
19999;DHT22;10160;50.926;4.374;2022-11-20T02:34:30;6.20;99.90
19999;DHT22;10160;50.926;4.374;2022-11-20T02:36:57;6.20;99.90
19999;DHT22;10160;50.926;4.374;2022-11-20T02:39:24;6.20;99.90
19999;DHT22;10160;50.926;4.374;2022-11-20T02:41:52;6.00;99.90
19999;DHT22;10160;50.926;4.374;2022-11-20T02:44:18;6.00;99.90
19999;DHT22;10160;50.926;4.374;2022-11-20T02:46:44;6.10;99.90
19999;DHT22;10160;50.926;4.374;2022-11-20T02:49:10;6.00;99.90
19999;DHT22;10160;50.926;4.374;2022-11-20T02:51:35;5.90;99.90
19999;DHT22;10160;50.926;4.374;2022-11-20T02:54:01;6.00;99.90
19999;DHT22;10160;50.926;4.374;2022-11-20T02:56:27;5.70;99.90
19999;DHT22;10160;50.926;4.374;2022-11-20T02:58:53;5.60;99.90
19999;DHT22;10160;50.926;4.374;2022-11-20T03:01:18;5.40;99.90
19999;DHT22;10160;50.926;4.374;2022-11-20T03:03:44;5.40;99.90
19999;DHT22;10160;50.926;4.374;2022-11-20T03:06:10;5.50;99.90
19999;DHT22;10160;50.926;4.374;2022-11-20T03:08:35;5.60;99.90
19999;DHT22;10160;50.926;4.374;2022-11-20T03:11:06;5.50;99.90
19999;DHT22;10160;50.926;4.374;2022-11-20T03:13:32;5.30;99.90
19999;DHT22;10160;50.926;4.374;2022-11-20T03:15:58;5.40;99.90
19999;DHT22;10160;50.926;4.374;2022-11-20T03:18:23;5.40;99.90
19999;DHT22;10160;50.926;4.374;2022-11-20T03:20:49;5.40;99.90
19999;DHT22;10160;50.926;4.374;2022-11-20T03:23:14;5.50;99.90
19999;DHT22;10160;50.926;4.374;2022-11-20T03:25:40;5.50;99.90
19999;DHT22;10160;50.926;4.374;2022-11-20T03:28:05;5.60;99.90
19999;DHT22;10160;50.926;4.374;2022-11-20T03:30:31;5.60;99.90
19999;DHT22;10160;50.926;4.374;2022-11-20T03:32:57;5.60;99.90
19999;DHT22;10160;50.926;4.374;2022-11-20T03:35:22;5.60;99.90
19999;DHT22;10160;50.926;4.374;2022-11-20T03:37:48;5.60;99.90
19999;DHT22;10160;50.926;4.374;2022-11-20T03:40:14;5.50;99.90
19999;DHT22;10160;50.926;4.374;2022-11-20T03:42:39;5.50;99.90
19999;DHT22;10160;50.926;4.374;2022-11-20T03:45:17;5.40;99.90
19999;DHT22;10160;50.926;4.374;2022-11-20T03:47:43;5.40;99.90
19999;DHT22;10160;50.926;4.374;2022-11-20T03:50:10;5.60;99.90
19999;DHT22;10160;50.926;4.374;2022-11-20T03:52:38;5.90;99.90
19999;DHT22;10160;50.926;4.374;2022-11-20T03:55:04;5.90;99.90
19999;DHT22;10160;50.926;4.374;2022-11-20T03:57:30;6.00;99.90
19999;DHT22;10160;50.926;4.374;2022-11-20T03:59:55;5.70;99.90
19999;DHT22;10160;50.926;4.374;2022-11-20T04:02:21;5.70;99.90
19999;DHT22;10160;50.926;4.374;2022-11-20T04:04:47;5.70;99.90
19999;DHT22;10160;50.926;4.374;2022-11-20T04:07:12;5.60;99.90
19999;DHT22;10160;50.926;4.374;2022-11-20T04:09:38;5.80;99.90
19999;DHT22;10160;50.926;4.374;2022-11-20T04:12:04;6.00;99.90
19999;DHT22;10160;50.926;4.374;2022-11-20T04:14:29;6.10;99.90
19999;DHT22;10160;50.926;4.374;2022-11-20T04:16:55;6.10;99.90
19999;DHT22;10160;50.926;4.374;2022-11-20T04:19:20;6.30;99.90
19999;DHT22;10160;50.926;4.374;2022-11-20T04:21:46;6.20;99.90
19999;DHT22;10160;50.926;4.374;2022-11-20T04:24:12;6.10;99.90
19999;DHT22;10160;50.926;4.374;2022-11-20T04:26:37;6.30;99.90
19999;DHT22;10160;50.926;4.374;2022-11-20T04:29:03;6.40;99.90
19999;DHT22;10160;50.926;4.374;2022-11-20T04:31:31;6.00;99.90
19999;DHT22;10160;50.926;4.374;2022-11-20T04:34:05;6.10;99.90
19999;DHT22;10160;50.926;4.374;2022-11-20T04:36:32;6.10;99.90
19999;DHT22;10160;50.926;4.374;2022-11-20T04:39:00;6.20;99.90
19999;DHT22;10160;50.926;4.374;2022-11-20T04:41:28;6.30;99.90
19999;DHT22;10160;50.926;4.374;2022-11-20T04:43:56;6.30;99.90
19999;DHT22;10160;50.926;4.374;2022-11-20T04:46:25;6.30;99.90
19999;DHT22;10160;50.926;4.374;2022-11-20T04:48:51;6.30;99.90
19999;DHT22;10160;50.926;4.374;2022-11-20T04:51:17;6.30;99.90
19999;DHT22;10160;50.926;4.374;2022-11-20T04:53:43;6.30;99.90
19999;DHT22;10160;50.926;4.374;2022-11-20T04:56:10;6.40;99.90
19999;DHT22;10160;50.926;4.374;2022-11-20T04:58:36;6.30;99.90
19999;DHT22;10160;50.926;4.374;2022-11-20T05:01:28;6.10;99.90
19999;DHT22;10160;50.926;4.374;2022-11-20T05:03:53;6.10;99.90
19999;DHT22;10160;50.926;4.374;2022-11-20T05:06:20;6.00;99.90
19999;DHT22;10160;50.926;4.374;2022-11-20T05:08:46;6.00;99.90
19999;DHT22;10160;50.926;4.374;2022-11-20T05:11:14;6.10;99.90
19999;DHT22;10160;50.926;4.374;2022-11-20T05:13:40;6.20;99.90
19999;DHT22;10160;50.926;4.374;2022-11-20T05:16:17;6.20;99.90
19999;DHT22;10160;50.926;4.374;2022-11-20T05:18:44;6.30;99.90
19999;DHT22;10160;50.926;4.374;2022-11-20T05:21:10;6.30;99.90
19999;DHT22;10160;50.926;4.374;2022-11-20T05:23:36;6.40;99.90
19999;DHT22;10160;50.926;4.374;2022-11-20T05:26:03;6.40;99.90
19999;DHT22;10160;50.926;4.374;2022-11-20T05:28:30;6.30;99.90
19999;DHT22;10160;50.926;4.374;2022-11-20T05:31:03;6.40;99.90
19999;DHT22;10160;50.926;4.374;2022-11-20T05:33:29;6.60;99.90
19999;DHT22;10160;50.926;4.374;2022-11-20T05:35:58;6.70;99.90
19999;DHT22;10160;50.926;4.374;2022-11-20T05:38:23;6.70;99.90
19999;DHT22;10160;50.926;4.374;2022-11-20T05:40:49;6.30;99.90
19999;DHT22;10160;50.926;4.374;2022-11-20T05:43:15;5.90;99.90
19999;DHT22;10160;50.926;4.374;2022-11-20T05:45:41;5.60;99.90
19999;DHT22;10160;50.926;4.374;2022-11-20T05:48:06;5.60;99.90
19999;DHT22;10160;50.926;4.374;2022-11-20T05:50:32;5.70;99.90
19999;DHT22;10160;50.926;4.374;2022-11-20T05:52:58;5.70;99.90
19999;DHT22;10160;50.926;4.374;2022-11-20T05:55:25;5.80;99.90
19999;DHT22;10160;50.926;4.374;2022-11-20T05:57:52;5.70;99.90
19999;DHT22;10160;50.926;4.374;2022-11-20T06:00:19;5.60;99.90
19999;DHT22;10160;50.926;4.374;2022-11-20T06:02:44;5.70;99.90
19999;DHT22;10160;50.926;4.374;2022-11-20T06:05:10;5.70;99.90
19999;DHT22;10160;50.926;4.374;2022-11-20T06:07:35;5.70;99.90
19999;DHT22;10160;50.926;4.374;2022-11-20T06:10:01;5.70;99.90
19999;DHT22;10160;50.926;4.374;2022-11-20T06:12:27;5.80;99.90
19999;DHT22;10160;50.926;4.374;2022-11-20T06:14:52;5.90;99.90
19999;DHT22;10160;50.926;4.374;2022-11-20T06:17:18;5.90;99.90
19999;DHT22;10160;50.926;4.374;2022-11-20T06:19:43;5.80;99.90
19999;DHT22;10160;50.926;4.374;2022-11-20T06:22:09;5.80;99.90
19999;DHT22;10160;50.926;4.374;2022-11-20T06:24:34;5.90;99.90
19999;DHT22;10160;50.926;4.374;2022-11-20T06:27:00;5.90;99.90
19999;DHT22;10160;50.926;4.374;2022-11-20T06:29:25;5.80;99.90
19999;DHT22;10160;50.926;4.374;2022-11-20T06:31:51;5.70;99.90
19999;DHT22;10160;50.926;4.374;2022-11-20T06:34:17;5.50;99.90
19999;DHT22;10160;50.926;4.374;2022-11-20T06:36:42;5.40;99.90
19999;DHT22;10160;50.926;4.374;2022-11-20T06:39:08;5.60;99.90
19999;DHT22;10160;50.926;4.374;2022-11-20T06:41:34;5.70;99.90
19999;DHT22;10160;50.926;4.374;2022-11-20T06:43:59;5.70;99.90
19999;DHT22;10160;50.926;4.374;2022-11-20T06:46:25;5.90;99.90
19999;DHT22;10160;50.926;4.374;2022-11-20T06:48:50;6.10;99.90
19999;DHT22;10160;50.926;4.374;2022-11-20T06:51:16;5.90;99.90
19999;DHT22;10160;50.926;4.374;2022-11-20T06:53:42;5.80;99.90
19999;DHT22;10160;50.926;4.374;2022-11-20T06:56:08;5.90;99.90
19999;DHT22;10160;50.926;4.374;2022-11-20T06:58:35;6.00;99.90
19999;DHT22;10160;50.926;4.374;2022-11-20T07:01:03;6.10;99.90
19999;DHT22;10160;50.926;4.374;2022-11-20T07:03:29;6.20;99.90
19999;DHT22;10160;50.926;4.374;2022-11-20T07:05:58;6.30;99.90
19999;DHT22;10160;50.926;4.374;2022-11-20T07:08:25;6.40;99.90
19999;DHT22;10160;50.926;4.374;2022-11-20T07:10:50;6.30;99.90
19999;DHT22;10160;50.926;4.374;2022-11-20T07:13:16;6.20;99.90
19999;DHT22;10160;50.926;4.374;2022-11-20T07:15:42;6.10;99.90
19999;DHT22;10160;50.926;4.374;2022-11-20T07:18:08;6.00;99.90
19999;DHT22;10160;50.926;4.374;2022-11-20T07:20:33;6.00;99.90
19999;DHT22;10160;50.926;4.374;2022-11-20T07:22:59;6.10;99.90
19999;DHT22;10160;50.926;4.374;2022-11-20T07:25:26;6.00;99.90
19999;DHT22;10160;50.926;4.374;2022-11-20T07:27:51;6.10;99.90
19999;DHT22;10160;50.926;4.374;2022-11-20T07:30:18;6.20;99.90
19999;DHT22;10160;50.926;4.374;2022-11-20T07:32:46;6.30;99.90
19999;DHT22;10160;50.926;4.374;2022-11-20T07:35:12;6.30;99.90
19999;DHT22;10160;50.926;4.374;2022-11-20T07:37:38;6.40;99.90
19999;DHT22;10160;50.926;4.374;2022-11-20T07:40:04;6.50;99.90
19999;DHT22;10160;50.926;4.374;2022-11-20T07:42:30;6.60;99.90
19999;DHT22;10160;50.926;4.374;2022-11-20T07:44:55;6.60;99.90
19999;DHT22;10160;50.926;4.374;2022-11-20T07:47:21;6.50;99.90
19999;DHT22;10160;50.926;4.374;2022-11-20T07:49:46;6.40;99.90
19999;DHT22;10160;50.926;4.374;2022-11-20T07:52:12;6.50;99.90
19999;DHT22;10160;50.926;4.374;2022-11-20T07:54:37;6.40;99.90
19999;DHT22;10160;50.926;4.374;2022-11-20T07:57:03;6.70;99.90
19999;DHT22;10160;50.926;4.374;2022-11-20T07:59:29;6.80;99.90
19999;DHT22;10160;50.926;4.374;2022-11-20T08:01:55;6.80;99.90
19999;DHT22;10160;50.926;4.374;2022-11-20T08:04:20;7.00;99.90
19999;DHT22;10160;50.926;4.374;2022-11-20T08:06:46;6.90;99.90
19999;DHT22;10160;50.926;4.374;2022-11-20T08:09:12;7.00;99.90
19999;DHT22;10160;50.926;4.374;2022-11-20T08:11:38;7.10;99.90
19999;DHT22;10160;50.926;4.374;2022-11-20T08:14:22;7.20;99.90
19999;DHT22;10160;50.926;4.374;2022-11-20T08:16:48;7.20;99.90
19999;DHT22;10160;50.926;4.374;2022-11-20T08:19:16;6.90;99.90
19999;DHT22;10160;50.926;4.374;2022-11-20T08:21:43;7.00;99.90
19999;DHT22;10160;50.926;4.374;2022-11-20T08:24:08;7.00;99.90
19999;DHT22;10160;50.926;4.374;2022-11-20T08:26:35;7.00;99.90
19999;DHT22;10160;50.926;4.374;2022-11-20T08:29:02;7.10;99.90
19999;DHT22;10160;50.926;4.374;2022-11-20T08:31:29;7.30;99.90
19999;DHT22;10160;50.926;4.374;2022-11-20T08:33:55;7.50;99.90
19999;DHT22;10160;50.926;4.374;2022-11-20T08:36:21;7.40;99.90
19999;DHT22;10160;50.926;4.374;2022-11-20T08:38:49;7.40;99.90
19999;DHT22;10160;50.926;4.374;2022-11-20T08:41:15;7.20;99.90
19999;DHT22;10160;50.926;4.374;2022-11-20T08:43:59;7.20;99.90
19999;DHT22;10160;50.926;4.374;2022-11-20T08:46:26;7.30;99.90
19999;DHT22;10160;50.926;4.374;2022-11-20T08:48:53;7.40;99.90
19999;DHT22;10160;50.926;4.374;2022-11-20T08:51:19;7.30;99.90
19999;DHT22;10160;50.926;4.374;2022-11-20T08:53:46;7.20;99.90
19999;DHT22;10160;50.926;4.374;2022-11-20T08:56:12;7.20;99.90
19999;DHT22;10160;50.926;4.374;2022-11-20T08:58:38;7.10;99.90
19999;DHT22;10160;50.926;4.374;2022-11-20T09:01:04;7.10;99.90
19999;DHT22;10160;50.926;4.374;2022-11-20T09:03:30;7.10;99.90
19999;DHT22;10160;50.926;4.374;2022-11-20T09:06:00;7.00;99.90
19999;DHT22;10160;50.926;4.374;2022-11-20T09:08:27;6.90;99.90
19999;DHT22;10160;50.926;4.374;2022-11-20T09:10:54;7.00;99.90
19999;DHT22;10160;50.926;4.374;2022-11-20T09:13:21;7.20;99.90
19999;DHT22;10160;50.926;4.374;2022-11-20T09:15:47;7.20;99.90
19999;DHT22;10160;50.926;4.374;2022-11-20T09:18:13;7.10;99.90
19999;DHT22;10160;50.926;4.374;2022-11-20T09:20:38;7.20;99.90
19999;DHT22;10160;50.926;4.374;2022-11-20T09:23:04;7.10;99.90
19999;DHT22;10160;50.926;4.374;2022-11-20T09:25:29;7.20;99.90
19999;DHT22;10160;50.926;4.374;2022-11-20T09:27:59;7.40;99.90
19999;DHT22;10160;50.926;4.374;2022-11-20T09:30:25;7.30;99.90
19999;DHT22;10160;50.926;4.374;2022-11-20T09:32:50;7.40;99.90
19999;DHT22;10160;50.926;4.374;2022-11-20T09:35:16;7.50;99.90
19999;DHT22;10160;50.926;4.374;2022-11-20T09:37:43;7.50;99.90
19999;DHT22;10160;50.926;4.374;2022-11-20T09:40:24;7.40;99.90
19999;DHT22;10160;50.926;4.374;2022-11-20T09:46:04;7.40;99.90
19999;DHT22;10160;50.926;4.374;2022-11-20T09:51:20;7.60;99.90
19999;DHT22;10160;50.926;4.374;2022-11-20T09:54:08;7.70;99.90
19999;DHT22;10160;50.926;4.374;2022-11-20T09:56:41;7.90;99.90
19999;DHT22;10160;50.926;4.374;2022-11-20T09:59:19;7.90;99.90
19999;DHT22;10160;50.926;4.374;2022-11-20T10:01:48;7.90;99.90
19999;DHT22;10160;50.926;4.374;2022-11-20T10:04:19;8.10;99.90
19999;DHT22;10160;50.926;4.374;2022-11-20T10:07:03;8.20;99.90
19999;DHT22;10160;50.926;4.374;2022-11-20T10:09:40;8.30;99.90
19999;DHT22;10160;50.926;4.374;2022-11-20T10:15:33;8.40;99.90
19999;DHT22;10160;50.926;4.374;2022-11-20T10:18:38;8.40;99.90
19999;DHT22;10160;50.926;4.374;2022-11-20T10:21:09;8.40;99.90
19999;DHT22;10160;50.926;4.374;2022-11-20T10:29:34;8.40;99.90
19999;DHT22;10160;50.926;4.374;2022-11-20T10:32:04;8.80;99.90
19999;DHT22;10160;50.926;4.374;2022-11-20T10:37:25;8.70;99.90
19999;DHT22;10160;50.926;4.374;2022-11-20T10:40:05;8.70;99.90
19999;DHT22;10160;50.926;4.374;2022-11-20T10:42:49;8.90;99.90
19999;DHT22;10160;50.926;4.374;2022-11-20T10:47:52;9.30;99.90
19999;DHT22;10160;50.926;4.374;2022-11-20T10:50:21;9.60;99.90
19999;DHT22;10160;50.926;4.374;2022-11-20T10:53:14;9.70;99.90
19999;DHT22;10160;50.926;4.374;2022-11-20T10:55:57;9.80;99.90
19999;DHT22;10160;50.926;4.374;2022-11-20T11:01:21;9.90;99.90
19999;DHT22;10160;50.926;4.374;2022-11-20T11:03:53;9.80;99.90
19999;DHT22;10160;50.926;4.374;2022-11-20T11:06:37;9.70;99.90
19999;DHT22;10160;50.926;4.374;2022-11-20T11:09:29;9.70;99.90
19999;DHT22;10160;50.926;4.374;2022-11-20T11:11:55;9.70;99.90
19999;DHT22;10160;50.926;4.374;2022-11-20T11:14:21;9.70;99.90
19999;DHT22;10160;50.926;4.374;2022-11-20T11:16:54;9.60;99.90
19999;DHT22;10160;50.926;4.374;2022-11-20T11:19:21;9.70;99.90
19999;DHT22;10160;50.926;4.374;2022-11-20T11:21:56;9.60;99.90
19999;DHT22;10160;50.926;4.374;2022-11-20T11:24:27;9.70;99.90
19999;DHT22;10160;50.926;4.374;2022-11-20T11:26:57;9.80;99.90
19999;DHT22;10160;50.926;4.374;2022-11-20T11:29:23;9.60;99.90
19999;DHT22;10160;50.926;4.374;2022-11-20T11:32:03;9.50;99.90
19999;DHT22;10160;50.926;4.374;2022-11-20T11:34:29;9.50;99.90
19999;DHT22;10160;50.926;4.374;2022-11-20T11:37:02;9.50;99.90
19999;DHT22;10160;50.926;4.374;2022-11-20T11:39:31;9.40;99.90
19999;DHT22;10160;50.926;4.374;2022-11-20T11:41:58;9.50;99.90
19999;DHT22;10160;50.926;4.374;2022-11-20T11:44:30;9.50;99.90
19999;DHT22;10160;50.926;4.374;2022-11-20T11:47:26;9.50;99.90
19999;DHT22;10160;50.926;4.374;2022-11-20T11:56:04;9.30;99.90
19999;DHT22;10160;50.926;4.374;2022-11-20T11:58:46;9.20;99.90
19999;DHT22;10160;50.926;4.374;2022-11-20T12:01:32;9.30;99.90
19999;DHT22;10160;50.926;4.374;2022-11-20T12:04:24;9.10;99.90
19999;DHT22;10160;50.926;4.374;2022-11-20T12:07:07;9.00;99.90
19999;DHT22;10160;50.926;4.374;2022-11-20T12:09:41;9.00;99.90
19999;DHT22;10160;50.926;4.374;2022-11-20T12:12:20;9.00;99.90
19999;DHT22;10160;50.926;4.374;2022-11-20T12:14:48;9.10;99.90
19999;DHT22;10160;50.926;4.374;2022-11-20T12:17:15;9.10;99.90
19999;DHT22;10160;50.926;4.374;2022-11-20T12:19:42;9.10;99.90
19999;DHT22;10160;50.926;4.374;2022-11-20T12:30:14;8.90;99.90
19999;DHT22;10160;50.926;4.374;2022-11-20T12:38:17;8.70;99.90
19999;DHT22;10160;50.926;4.374;2022-11-20T12:41:02;8.60;99.90
19999;DHT22;10160;50.926;4.374;2022-11-20T12:43:41;8.70;99.90
19999;DHT22;10160;50.926;4.374;2022-11-20T12:54:49;8.40;99.90
19999;DHT22;10160;50.926;4.374;2022-11-20T13:00:20;8.60;99.90
19999;DHT22;10160;50.926;4.374;2022-11-20T13:08:38;8.80;99.90
19999;DHT22;10160;50.926;4.374;2022-11-20T13:11:18;8.80;99.90
19999;DHT22;10160;50.926;4.374;2022-11-20T13:19:16;8.80;99.90
19999;DHT22;10160;50.926;4.374;2022-11-20T13:21:44;8.70;99.90
19999;DHT22;10160;50.926;4.374;2022-11-20T13:29:35;8.30;99.90
19999;DHT22;10160;50.926;4.374;2022-11-20T13:34:37;8.30;99.90
19999;DHT22;10160;50.926;4.374;2022-11-20T13:37:02;8.40;99.90
19999;DHT22;10160;50.926;4.374;2022-11-20T13:39:36;8.40;99.90
19999;DHT22;10160;50.926;4.374;2022-11-20T13:42:27;8.40;99.90
19999;DHT22;10160;50.926;4.374;2022-11-20T13:45:01;8.30;99.90
19999;DHT22;10160;50.926;4.374;2022-11-20T13:47:28;8.40;99.90
19999;DHT22;10160;50.926;4.374;2022-11-20T13:49:57;8.50;99.90
19999;DHT22;10160;50.926;4.374;2022-11-20T13:53:00;8.40;99.90
19999;DHT22;10160;50.926;4.374;2022-11-20T14:00:55;8.30;99.90
19999;DHT22;10160;50.926;4.374;2022-11-20T14:03:23;8.30;99.90
19999;DHT22;10160;50.926;4.374;2022-11-20T14:06:00;8.40;99.90
19999;DHT22;10160;50.926;4.374;2022-11-20T14:08:35;8.40;99.90
19999;DHT22;10160;50.926;4.374;2022-11-20T14:11:16;8.50;99.90
19999;DHT22;10160;50.926;4.374;2022-11-20T14:13:58;8.40;99.90
19999;DHT22;10160;50.926;4.374;2022-11-20T14:16:25;8.40;99.90
19999;DHT22;10160;50.926;4.374;2022-11-20T14:18:52;8.40;99.90
19999;DHT22;10160;50.926;4.374;2022-11-20T14:21:25;8.60;99.90
19999;DHT22;10160;50.926;4.374;2022-11-20T14:24:09;8.60;99.90
19999;DHT22;10160;50.926;4.374;2022-11-20T14:26:38;8.60;99.90
19999;DHT22;10160;50.926;4.374;2022-11-20T14:29:19;8.60;99.90
19999;DHT22;10160;50.926;4.374;2022-11-20T14:31:46;8.50;99.90
19999;DHT22;10160;50.926;4.374;2022-11-20T14:34:20;8.50;99.90
19999;DHT22;10160;50.926;4.374;2022-11-20T14:36:47;8.60;99.90
19999;DHT22;10160;50.926;4.374;2022-11-20T14:39:28;8.60;99.90
19999;DHT22;10160;50.926;4.374;2022-11-20T14:41:55;8.60;99.90
19999;DHT22;10160;50.926;4.374;2022-11-20T14:44:25;8.60;99.90
19999;DHT22;10160;50.926;4.374;2022-11-20T14:46:52;8.60;99.90
19999;DHT22;10160;50.926;4.374;2022-11-20T14:49:19;8.60;99.90
19999;DHT22;10160;50.926;4.374;2022-11-20T14:51:46;8.70;99.90
19999;DHT22;10160;50.926;4.374;2022-11-20T14:54:13;8.60;99.90
19999;DHT22;10160;50.926;4.374;2022-11-20T14:56:39;8.60;99.90
19999;DHT22;10160;50.926;4.374;2022-11-20T14:59:05;8.60;99.90
19999;DHT22;10160;50.926;4.374;2022-11-20T15:01:33;8.70;99.90
19999;DHT22;10160;50.926;4.374;2022-11-20T15:04:07;8.70;99.90
19999;DHT22;10160;50.926;4.374;2022-11-20T15:06:34;8.80;99.90
19999;DHT22;10160;50.926;4.374;2022-11-20T15:09:12;8.80;99.90
19999;DHT22;10160;50.926;4.374;2022-11-20T15:11:38;9.00;99.90
19999;DHT22;10160;50.926;4.374;2022-11-20T15:14:09;9.00;99.90
19999;DHT22;10160;50.926;4.374;2022-11-20T15:16:35;9.00;99.90
19999;DHT22;10160;50.926;4.374;2022-11-20T15:19:02;9.00;99.90
19999;DHT22;10160;50.926;4.374;2022-11-20T15:21:29;9.00;99.90
19999;DHT22;10160;50.926;4.374;2022-11-20T15:23:54;9.10;99.90
19999;DHT22;10160;50.926;4.374;2022-11-20T15:26:27;9.10;99.90
19999;DHT22;10160;50.926;4.374;2022-11-20T15:28:54;9.00;99.90
19999;DHT22;10160;50.926;4.374;2022-11-20T15:31:22;9.10;99.90
19999;DHT22;10160;50.926;4.374;2022-11-20T15:33:48;9.20;99.90
19999;DHT22;10160;50.926;4.374;2022-11-20T15:36:14;9.20;99.90
19999;DHT22;10160;50.926;4.374;2022-11-20T15:38:40;9.20;99.90
19999;DHT22;10160;50.926;4.374;2022-11-20T15:41:06;9.20;99.90
19999;DHT22;10160;50.926;4.374;2022-11-20T15:43:31;9.30;99.90
19999;DHT22;10160;50.926;4.374;2022-11-20T15:46:00;9.30;99.90
19999;DHT22;10160;50.926;4.374;2022-11-20T15:48:29;9.30;99.90
19999;DHT22;10160;50.926;4.374;2022-11-20T15:53:41;9.20;99.90
19999;DHT22;10160;50.926;4.374;2022-11-20T15:56:14;9.20;99.90
19999;DHT22;10160;50.926;4.374;2022-11-20T15:58:40;9.30;99.90
19999;DHT22;10160;50.926;4.374;2022-11-20T16:01:13;9.30;99.90
19999;DHT22;10160;50.926;4.374;2022-11-20T16:03:39;9.30;99.90
19999;DHT22;10160;50.926;4.374;2022-11-20T16:06:05;9.40;99.90
19999;DHT22;10160;50.926;4.374;2022-11-20T16:08:31;9.40;99.90
19999;DHT22;10160;50.926;4.374;2022-11-20T16:10:57;9.50;99.90
19999;DHT22;10160;50.926;4.374;2022-11-20T16:13:22;9.40;99.90
19999;DHT22;10160;50.926;4.374;2022-11-20T16:16:11;9.40;99.90
19999;DHT22;10160;50.926;4.374;2022-11-20T16:18:43;9.40;99.90
19999;DHT22;10160;50.926;4.374;2022-11-20T16:21:11;9.40;99.90
19999;DHT22;10160;50.926;4.374;2022-11-20T16:23:38;9.50;99.90
19999;DHT22;10160;50.926;4.374;2022-11-20T16:26:12;9.50;99.90
19999;DHT22;10160;50.926;4.374;2022-11-20T16:28:38;9.50;99.90
19999;DHT22;10160;50.926;4.374;2022-11-20T16:31:17;9.50;99.90
19999;DHT22;10160;50.926;4.374;2022-11-20T16:33:49;9.60;99.90
19999;DHT22;10160;50.926;4.374;2022-11-20T16:36:16;9.50;99.90
19999;DHT22;10160;50.926;4.374;2022-11-20T16:38:43;9.40;99.90
19999;DHT22;10160;50.926;4.374;2022-11-20T16:41:09;9.50;99.90
19999;DHT22;10160;50.926;4.374;2022-11-20T16:43:59;9.50;99.90
19999;DHT22;10160;50.926;4.374;2022-11-20T16:46:28;9.50;99.90
19999;DHT22;10160;50.926;4.374;2022-11-20T16:49:05;9.60;99.90
19999;DHT22;10160;50.926;4.374;2022-11-20T16:51:34;9.60;99.90
19999;DHT22;10160;50.926;4.374;2022-11-20T16:54:04;9.40;99.90
19999;DHT22;10160;50.926;4.374;2022-11-20T16:56:30;9.40;99.90
19999;DHT22;10160;50.926;4.374;2022-11-20T16:58:57;9.40;99.90
19999;DHT22;10160;50.926;4.374;2022-11-20T17:01:24;9.30;99.90
19999;DHT22;10160;50.926;4.374;2022-11-20T17:03:55;9.20;99.90
19999;DHT22;10160;50.926;4.374;2022-11-20T17:06:24;9.20;99.90
19999;DHT22;10160;50.926;4.374;2022-11-20T17:08:50;9.10;99.90
19999;DHT22;10160;50.926;4.374;2022-11-20T17:11:18;9.10;99.90
19999;DHT22;10160;50.926;4.374;2022-11-20T17:13:44;9.20;99.90
19999;DHT22;10160;50.926;4.374;2022-11-20T17:16:13;9.30;99.90
19999;DHT22;10160;50.926;4.374;2022-11-20T17:18:39;9.30;99.90
19999;DHT22;10160;50.926;4.374;2022-11-20T17:21:06;9.30;99.90
19999;DHT22;10160;50.926;4.374;2022-11-20T17:23:38;9.40;99.90